Time;durP1;ratioP1;P1;durP2;ratioP2;P2;SDS_P1;SDS_P2;PMS_P1;PMS_P2;Temp;Humidity;BMP_temperature;BMP_pressure;BME280_temperature;BME280_humidity;BME280_pressure;Samples;Min_cycle;Max_cycle;Signal;HPM_P1;HPM_P2
2023/11/28 00:01:26;;;;;;;9.73;8.02;;;;;;;;;;6180754;23;20021;-83
2023/11/28 00:03:53;;;;;;;9.45;7.88;;;;;;;;;;6180895;23;20032;-82
2023/11/28 00:06:22;;;;;;;9.13;7.18;;;;;;;;;;6179817;23;20021;-83
2023/11/28 00:08:49;;;;;;;8.35;7.50;;;;;;;;;;6154301;23;20148;-82
2023/11/28 00:11:20;;;;;;;9.98;7.82;;;;;;;;;;6180206;23;20515;-82
2023/11/28 00:13:48;;;;;;;8.90;7.18;;;;;;;;;;6153896;23;20045;-82
2023/11/28 00:16:16;;;;;;;11.15;7.72;;;;;;;;;;6179955;23;20057;-82
2023/11/28 00:18:43;;;;;;;11.95;8.52;;;;;;;;;;6154371;23;20025;-81
2023/11/28 00:21:11;;;;;;;9.38;7.80;;;;;;;;;;6154294;23;20024;-81
2023/11/28 00:23:39;;;;;;;13.15;8.23;;;;;;;;;;6153944;23;20032;-81
2023/11/28 00:26:06;;;;;;;16.23;9.73;;;;;;;;;;6180254;23;20017;-82
2023/11/28 00:28:33;;;;;;;12.77;9.07;;;;;;;;;;6154447;23;20024;-81
2023/11/28 00:31:01;;;;;;;10.75;8.32;;;;;;;;;;6180391;23;20035;-81
2023/11/28 00:33:28;;;;;;;13.82;9.32;;;;;;;;;;6153714;23;20096;-82
2023/11/28 00:35:55;;;;;;;13.15;9.68;;;;;;;;;;6153352;23;20477;-82
2023/11/28 00:38:23;;;;;;;12.10;9.25;;;;;;;;;;6180588;23;20017;-82
2023/11/28 00:40:50;;;;;;;11.35;8.75;;;;;;;;;;6154175;23;20074;-81
2023/11/28 00:43:18;;;;;;;11.27;8.88;;;;;;;;;;6180432;23;20104;-81
2023/11/28 00:45:45;;;;;;;11.63;8.82;;;;;;;;;;6180081;23;20051;-82
2023/11/28 00:48:12;;;;;;;18.48;10.95;;;;;;;;;;6180251;23;20025;-81
2023/11/28 00:50:39;;;;;;;13.65;9.18;;;;;;;;;;6179661;23;20461;-81
2023/11/28 00:53:07;;;;;;;13.10;9.35;;;;;;;;;;6179808;23;20024;-81
2023/11/28 00:55:34;;;;;;;11.20;8.93;;;;;;;;;;6153574;23;20031;-81
2023/11/28 00:58:01;;;;;;;12.82;9.52;;;;;;;;;;6157464;23;20092;-81
2023/11/28 01:00:29;;;;;;;14.93;9.80;;;;;;;;;;6183399;23;20025;-81
2023/11/28 01:02:56;;;;;;;11.88;9.13;;;;;;;;;;6157050;23;20086;-81
2023/11/28 01:05:23;;;;;;;12.57;9.27;;;;;;;;;;6156842;23;20025;-81
2023/11/28 01:07:51;;;;;;;12.55;9.18;;;;;;;;;;6157321;23;20028;-81
2023/11/28 01:10:19;;;;;;;11.60;8.85;;;;;;;;;;6156729;23;20021;-81
2023/11/28 01:12:46;;;;;;;12.93;8.90;;;;;;;;;;6182942;23;20021;-82
2023/11/28 01:15:13;;;;;;;20.25;11.68;;;;;;;;;;6182783;23;20359;-82
2023/11/28 01:17:41;;;;;;;17.13;10.43;;;;;;;;;;6156785;23;20028;-81
2023/11/28 01:20:08;;;;;;;12.75;9.32;;;;;;;;;;6183526;23;20022;-82
2023/11/28 01:22:36;;;;;;;16.05;10.32;;;;;;;;;;6157526;23;20021;-82
2023/11/28 01:25:03;;;;;;;12.15;9.50;;;;;;;;;;6156867;23;20025;-81
2023/11/28 01:27:30;;;;;;;18.67;10.57;;;;;;;;;;6183309;23;20021;-81
2023/11/28 01:29:58;;;;;;;13.10;8.93;;;;;;;;;;6182888;23;20410;-81
2023/11/28 01:32:25;;;;;;;13.65;9.43;;;;;;;;;;6183434;23;20025;-81
2023/11/28 01:34:52;;;;;;;15.70;9.88;;;;;;;;;;6183170;23;20017;-81
2023/11/28 01:37:19;;;;;;;19.25;11.40;;;;;;;;;;6156981;23;20476;-81
2023/11/28 01:39:46;;;;;;;18.85;11.20;;;;;;;;;;6157083;23;20376;-81
2023/11/28 01:42:14;;;;;;;16.40;10.48;;;;;;;;;;6183095;23;20380;-81
2023/11/28 01:44:41;;;;;;;14.35;10.02;;;;;;;;;;6156346;23;20079;-81
2023/11/28 01:47:08;;;;;;;14.77;10.23;;;;;;;;;;6183143;23;20025;-81
2023/11/28 01:49:37;;;;;;;15.93;10.55;;;;;;;;;;6156987;23;20166;-81
2023/11/28 01:52:05;;;;;;;13.80;9.80;;;;;;;;;;6156567;23;20044;-81
2023/11/28 01:54:32;;;;;;;15.65;9.85;;;;;;;;;;6182799;23;20029;-81
2023/11/28 01:57:00;;;;;;;14.73;10.35;;;;;;;;;;6156763;23;20471;-81
2023/11/28 01:59:28;;;;;;;17.88;11.10;;;;;;;;;;6156532;23;20132;-81
2023/11/28 02:01:56;;;;;;;19.65;11.85;;;;;;;;;;6183038;23;20071;-82
2023/11/28 02:04:23;;;;;;;23.88;11.02;;;;;;;;;;6182586;23;20055;-81
2023/11/28 02:06:51;;;;;;;14.52;10.23;;;;;;;;;;6182920;23;20024;-81
2023/11/28 02:09:18;;;;;;;14.70;10.25;;;;;;;;;;6180514;23;20021;-81
2023/11/28 02:11:46;;;;;;;13.40;9.80;;;;;;;;;;6154758;23;20051;-80
2023/11/28 02:14:13;;;;;;;14.55;9.38;;;;;;;;;;6155009;23;20070;-80
2023/11/28 02:16:40;;;;;;;17.00;10.60;;;;;;;;;;6181149;23;20025;-80
2023/11/28 02:19:08;;;;;;;14.52;9.73;;;;;;;;;;6154746;23;20450;-80
2023/11/28 02:21:35;;;;;;;13.77;9.98;;;;;;;;;;6181154;23;20324;-81
2023/11/28 02:24:03;;;;;;;10.70;8.27;;;;;;;;;;6154222;23;20025;-80
2023/11/28 02:26:30;;;;;;;12.77;9.07;;;;;;;;;;6180732;23;20078;-81
2023/11/28 02:28:58;;;;;;;12.13;8.98;;;;;;;;;;6155020;23;20102;-81
2023/11/28 02:31:25;;;;;;;17.33;9.13;;;;;;;;;;6154984;23;20024;-81
2023/11/28 02:33:53;;;;;;;11.05;8.32;;;;;;;;;;6154418;23;20013;-81
2023/11/28 02:36:20;;;;;;;12.57;8.75;;;;;;;;;;6180756;23;20024;-81
2023/11/28 02:38:48;;;;;;;10.77;8.15;;;;;;;;;;6154665;23;20021;-81
2023/11/28 02:41:16;;;;;;;12.23;8.10;;;;;;;;;;6155107;23;20161;-82
2023/11/28 02:43:43;;;;;;;11.70;8.10;;;;;;;;;;6180388;23;20327;-81
2023/11/28 02:46:10;;;;;;;13.23;8.23;;;;;;;;;;6154818;23;20083;-82
2023/11/28 02:48:39;;;;;;;8.93;6.38;;;;;;;;;;6181144;23;20062;-82
2023/11/28 02:51:09;;;;;;;11.10;7.30;;;;;;;;;;6180624;23;20078;-82
2023/11/28 02:53:38;;;;;;;10.48;7.47;;;;;;;;;;6154377;23;20074;-83
2023/11/28 02:56:06;;;;;;;15.38;8.02;;;;;;;;;;6180786;23;20105;-82
2023/11/28 02:58:33;;;;;;;11.98;8.05;;;;;;;;;;6154657;23;20346;-82
2023/11/28 03:01:01;;;;;;;11.93;7.40;;;;;;;;;;6154924;23;20339;-82
2023/11/28 03:03:28;;;;;;;13.85;8.35;;;;;;;;;;6180370;23;20529;-83
2023/11/28 03:05:55;;;;;;;14.80;8.68;;;;;;;;;;6180441;23;20050;-83
2023/11/28 03:08:23;;;;;;;12.38;7.10;;;;;;;;;;6180584;23;20021;-83
2023/11/28 03:10:50;;;;;;;10.75;7.60;;;;;;;;;;6180867;23;20074;-83
2023/11/28 03:13:18;;;;;;;11.75;6.65;;;;;;;;;;6180950;23;20033;-83
2023/11/28 03:15:45;;;;;;;10.70;7.65;;;;;;;;;;6154279;23;20450;-83
2023/11/28 03:18:12;;;;;;;8.57;6.53;;;;;;;;;;6154796;23;20303;-83
2023/11/28 03:20:40;;;;;;;11.10;6.68;;;;;;;;;;6180554;23;20514;-83
2023/11/28 03:23:07;;;;;;;10.70;7.07;;;;;;;;;;6180977;23;20028;-83
2023/11/28 03:25:34;;;;;;;8.65;6.00;;;;;;;;;;6153579;23;20100;-83
2023/11/28 03:28:01;;;;;;;10.90;6.78;;;;;;;;;;6180468;23;20024;-84
2023/11/28 03:30:29;;;;;;;8.60;6.35;;;;;;;;;;6180631;23;20021;-83
2023/11/28 03:32:56;;;;;;;9.30;5.95;;;;;;;;;;6154659;23;20141;-84
2023/11/28 03:35:23;;;;;;;8.30;6.20;;;;;;;;;;6154656;23;20027;-84
2023/11/28 03:37:51;;;;;;;8.25;5.75;;;;;;;;;;6181171;23;20022;-84
2023/11/28 03:40:18;;;;;;;8.55;6.20;;;;;;;;;;6180969;23;20075;-84
2023/11/28 03:42:45;;;;;;;7.13;5.38;;;;;;;;;;6180654;23;20530;-84
2023/11/28 03:45:13;;;;;;;11.65;6.15;;;;;;;;;;6180694;23;20035;-84
2023/11/28 03:47:40;;;;;;;6.10;5.13;;;;;;;;;;6154623;23;20021;-84
2023/11/28 03:50:08;;;;;;;13.10;5.97;;;;;;;;;;6154749;23;20024;-84
2023/11/28 03:52:35;;;;;;;7.20;5.30;;;;;;;;;;6149401;23;20029;-84
2023/11/28 03:55:02;;;;;;;7.53;5.80;;;;;;;;;;6150584;23;20029;-85
2023/11/28 03:57:30;;;;;;;12.13;6.80;;;;;;;;;;6151034;23;20022;-83
2023/11/28 03:59:57;;;;;;;15.43;6.63;;;;;;;;;;6150475;23;20029;-84
2023/11/28 04:02:24;;;;;;;7.13;5.05;;;;;;;;;;6149695;23;20049;-85
2023/11/28 04:04:52;;;;;;;8.55;5.75;;;;;;;;;;6151111;23;20105;-85
2023/11/28 04:07:19;;;;;;;8.02;5.53;;;;;;;;;;6149366;23;20489;-85
2023/11/28 04:09:47;;;;;;;6.45;5.47;;;;;;;;;;6149595;23;20065;-85
2023/11/28 04:12:14;;;;;;;7.30;5.53;;;;;;;;;;6149550;23;20071;-84
2023/11/28 04:14:41;;;;;;;7.90;5.88;;;;;;;;;;6150613;23;20018;-84
2023/11/28 04:17:08;;;;;;;10.90;6.22;;;;;;;;;;6150042;23;20453;-85
2023/11/28 04:19:36;;;;;;;6.72;5.43;;;;;;;;;;6149342;23;20022;-86
2023/11/28 04:22:03;;;;;;;8.10;4.95;;;;;;;;;;6149440;23;20473;-86
2023/11/28 04:24:30;;;;;;;10.25;5.75;;;;;;;;;;6149489;23;20021;-86
2023/11/28 04:26:58;;;;;;;26.13;8.38;;;;;;;;;;6151229;23;20038;-85
2023/11/28 04:29:25;;;;;;;9.10;5.90;;;;;;;;;;6150088;23;20059;-86
2023/11/28 04:31:52;;;;;;;8.48;5.18;;;;;;;;;;6149536;23;20026;-86
2023/11/28 04:34:19;;;;;;;10.75;6.15;;;;;;;;;;6150914;23;20477;-86
2023/11/28 04:36:47;;;;;;;6.75;5.50;;;;;;;;;;6150204;23;20029;-86
2023/11/28 04:39:14;;;;;;;7.10;5.25;;;;;;;;;;6149673;23;20057;-86
2023/11/28 04:41:42;;;;;;;8.07;5.68;;;;;;;;;;6149514;23;20025;-87
2023/11/28 04:44:09;;;;;;;7.55;5.50;;;;;;;;;;6149941;23;20021;-87
2023/11/28 04:46:37;;;;;;;11.85;6.32;;;;;;;;;;6150385;23;20036;-87
2023/11/28 04:49:04;;;;;;;8.85;5.38;;;;;;;;;;6150369;23;20022;-87
2023/11/28 04:51:31;;;;;;;9.25;5.22;;;;;;;;;;6149612;23;20018;-88
2023/11/28 04:53:59;;;;;;;20.67;6.75;;;;;;;;;;6179282;23;20021;-87
2023/11/28 04:56:26;;;;;;;5.38;4.15;;;;;;;;;;6180576;23;20025;-88
2023/11/28 04:58:54;;;;;;;10.50;5.43;;;;;;;;;;6155718;23;20021;-89
2023/11/28 05:01:21;;;;;;;6.07;4.85;;;;;;;;;;6155603;23;20071;-89
2023/11/28 05:03:50;;;;;;;9.05;4.40;;;;;;;;;;6154838;23;20017;-89
2023/11/28 05:06:18;;;;;;;6.72;4.60;;;;;;;;;;6155033;22;20078;-89
2023/11/28 05:08:45;;;;;;;2.55;2.35;;;;;;;;;;6155364;23;20029;-90
2023/11/28 05:11:12;;;;;;;2.80;2.60;;;;;;;;;;6154964;23;20066;-91
2023/11/28 05:13:39;;;;;;;3.90;3.08;;;;;;;;;;6155093;23;20476;-91
2023/11/28 05:16:07;;;;;;;4.05;3.25;;;;;;;;;;6154596;23;20021;-91
2023/11/28 05:18:35;;;;;;;10.15;3.95;;;;;;;;;;6155091;23;20017;-92
2023/11/28 05:21:02;;;;;;;4.13;3.33;;;;;;;;;;6154885;23;20086;-91
2023/11/28 05:23:29;;;;;;;3.33;2.97;;;;;;;;;;6155412;23;20017;-93
2023/11/28 05:25:57;;;;;;;4.55;3.45;;;;;;;;;;6154879;23;20021;-92
2023/11/28 05:28:24;;;;;;;6.25;3.85;;;;;;;;;;6155632;23;20033;-90
2023/11/28 05:30:51;;;;;;;3.80;3.50;;;;;;;;;;6154969;23;20014;-92
2023/11/28 05:33:18;;;;;;;5.35;4.22;;;;;;;;;;6155623;23;20096;-91
2023/11/28 05:35:46;;;;;;;7.63;4.68;;;;;;;;;;6154471;23;20017;-93
2023/11/28 05:38:13;;;;;;;6.00;5.20;;;;;;;;;;6154895;23;20549;-92
2023/11/28 05:40:40;;;;;;;7.43;5.13;;;;;;;;;;6155092;23;20013;-93
2023/11/28 05:43:08;;;;;;;4.65;4.18;;;;;;;;;;6155457;23;20021;-92
2023/11/28 05:45:35;;;;;;;7.10;4.90;;;;;;;;;;6156077;23;20018;-90
2023/11/28 05:48:02;;;;;;;6.68;4.75;;;;;;;;;;6156249;23;20058;-91
2023/11/28 05:50:29;;;;;;;6.30;3.80;;;;;;;;;;6155932;23;20036;-92
2023/11/28 05:52:57;;;;;;;4.93;3.53;;;;;;;;;;6155968;23;20025;-91
2023/11/28 05:55:25;;;;;;;4.78;3.10;;;;;;;;;;6156257;23;20399;-91
2023/11/28 05:57:52;;;;;;;6.50;3.20;;;;;;;;;;6156231;23;20021;-91
2023/11/28 06:00:19;;;;;;;3.70;2.90;;;;;;;;;;6156642;23;20503;-89
2023/11/28 06:02:47;;;;;;;2.67;2.03;;;;;;;;;;6155714;23;20025;-90
2023/11/28 06:05:14;;;;;;;2.03;1.67;;;;;;;;;;6155699;23;20396;-89
2023/11/28 06:07:42;;;;;;;3.03;1.50;;;;;;;;;;6156035;23;20454;-89
2023/11/28 06:10:10;;;;;;;1.90;1.80;;;;;;;;;;6156011;23;20013;-89
2023/11/28 06:12:38;;;;;;;1.95;1.80;;;;;;;;;;6155977;23;20021;-89
2023/11/28 06:15:07;;;;;;;2.65;1.80;;;;;;;;;;6155377;23;20018;-88
2023/11/28 06:17:34;;;;;;;1.80;1.70;;;;;;;;;;6155728;23;20434;-89
2023/11/28 06:20:04;;;;;;;3.53;1.80;;;;;;;;;;6156238;22;20040;-88
2023/11/28 06:22:32;;;;;;;1.90;1.80;;;;;;;;;;6155946;23;20150;-88
2023/11/28 06:24:59;;;;;;;2.47;2.30;;;;;;;;;;6155698;23;20018;-89
2023/11/28 06:27:28;;;;;;;2.40;2.20;;;;;;;;;;6156286;23;20023;-88
2023/11/28 06:29:55;;;;;;;2.88;2.67;;;;;;;;;;6155727;23;20024;-89
2023/11/28 06:32:22;;;;;;;2.75;2.25;;;;;;;;;;6155984;23;20021;-88
2023/11/28 06:34:50;;;;;;;2.50;2.30;;;;;;;;;;6155935;23;20047;-89
2023/11/28 06:37:17;;;;;;;5.45;2.72;;;;;;;;;;6156296;23;20048;-88
2023/11/28 06:39:47;;;;;;;2.72;2.53;;;;;;;;;;6155660;23;20033;-88
2023/11/28 06:42:15;;;;;;;2.97;2.78;;;;;;;;;;6156505;23;20021;-88
2023/11/28 06:44:43;;;;;;;5.00;4.30;;;;;;;;;;6155821;23;20017;-88
2023/11/28 06:47:10;;;;;;;7.88;4.45;;;;;;;;;;6156112;23;20464;-88
2023/11/28 06:49:38;;;;;;;3.70;3.40;;;;;;;;;;6155984;23;20017;-88
2023/11/28 06:52:06;;;;;;;4.25;3.30;;;;;;;;;;6155410;23;20028;-88
2023/11/28 06:54:33;;;;;;;3.47;3.22;;;;;;;;;;6155768;23;20477;-88
2023/11/28 06:57:02;;;;;;;4.18;3.72;;;;;;;;;;6155837;23;20024;-87
2023/11/28 06:59:33;;;;;;;3.10;2.90;;;;;;;;;;6157066;23;20028;-87
2023/11/28 07:02:00;;;;;;;3.33;3.10;;;;;;;;;;6156421;23;20029;-87
2023/11/28 07:04:28;;;;;;;4.15;3.33;;;;;;;;;;6156168;23;20025;-87
2023/11/28 07:06:55;;;;;;;5.97;4.25;;;;;;;;;;6155928;23;20466;-88
2023/11/28 07:09:22;;;;;;;5.10;4.43;;;;;;;;;;6155373;23;20485;-88
2023/11/28 07:11:53;;;;;;;3.78;3.58;;;;;;;;;;6181663;23;20028;-87
2023/11/28 07:14:20;;;;;;;4.03;3.72;;;;;;;;;;6180964;23;20037;-86
2023/11/28 07:16:48;;;;;;;4.63;4.22;;;;;;;;;;6155838;23;20078;-87
2023/11/28 07:19:16;;;;;;;11.93;10.52;;;;;;;;;;6156195;23;20357;-88
2023/11/28 07:21:43;;;;;;;6.20;5.60;;;;;;;;;;6181098;23;20091;-87
2023/11/28 07:24:10;;;;;;;6.07;5.03;;;;;;;;;;6155633;23;20338;-88
2023/11/28 07:26:39;;;;;;;5.53;4.78;;;;;;;;;;6155606;23;20465;-88
2023/11/28 07:29:06;;;;;;;4.78;4.45;;;;;;;;;;6156024;23;20029;-87
2023/11/28 07:31:33;;;;;;;5.13;4.72;;;;;;;;;;6155920;23;20345;-88
2023/11/28 07:34:01;;;;;;;5.22;4.68;;;;;;;;;;6155970;23;20021;-88
2023/11/28 07:36:28;;;;;;;4.90;4.50;;;;;;;;;;6181137;23;20029;-87
2023/11/28 07:38:56;;;;;;;5.65;5.10;;;;;;;;;;6155475;23;20098;-87
2023/11/28 07:41:23;;;;;;;8.68;7.78;;;;;;;;;;6155533;23;20021;-86
2023/11/28 07:43:50;;;;;;;8.00;6.53;;;;;;;;;;6155982;23;20070;-87
2023/11/28 07:46:18;;;;;;;6.82;6.20;;;;;;;;;;6181284;23;20028;-87
2023/11/28 07:48:45;;;;;;;6.70;6.07;;;;;;;;;;6181645;23;20402;-88
2023/11/28 07:51:13;;;;;;;6.85;5.45;;;;;;;;;;6155481;23;20017;-86
2023/11/28 07:53:40;;;;;;;5.70;5.18;;;;;;;;;;6150596;23;20025;-88
2023/11/28 07:56:08;;;;;;;6.38;5.78;;;;;;;;;;6157285;23;20098;-88
2023/11/28 07:58:35;;;;;;;7.85;7.03;;;;;;;;;;6154267;23;20441;-89
2023/11/28 08:01:02;;;;;;;6.40;5.68;;;;;;;;;;6150403;23;20053;-87
2023/11/28 08:03:30;;;;;;;5.97;5.47;;;;;;;;;;6150234;23;20062;-88
2023/11/28 08:05:58;;;;;;;4.80;4.40;;;;;;;;;;6148683;23;20022;-87
2023/11/28 08:08:26;;;;;;;6.43;5.78;;;;;;;;;;6149940;23;20519;-87
2023/11/28 08:10:53;;;;;;;6.10;5.53;;;;;;;;;;6150472;23;20100;-88
2023/11/28 08:13:21;;;;;;;5.97;5.30;;;;;;;;;;6149829;23;20477;-86
2023/11/28 08:15:52;;;;;;;5.90;5.40;;;;;;;;;;6150765;23;20022;-87
2023/11/28 08:18:20;;;;;;;6.45;5.72;;;;;;;;;;6149663;23;20033;-86
2023/11/28 08:20:47;;;;;;;6.82;6.18;;;;;;;;;;6150256;23;20114;-88
2023/11/28 08:23:14;;;;;;;7.00;6.30;;;;;;;;;;6150348;23;20086;-87
2023/11/28 08:25:42;;;;;;;6.97;6.20;;;;;;;;;;6149970;23;20040;-87
2023/11/28 08:28:09;;;;;;;6.53;5.93;;;;;;;;;;6150325;23;20024;-87
2023/11/28 08:30:36;;;;;;;6.82;6.20;;;;;;;;;;6151207;23;20021;-86
2023/11/28 08:33:03;;;;;;;7.35;6.53;;;;;;;;;;6150051;23;20422;-87
2023/11/28 08:35:31;;;;;;;7.97;6.55;;;;;;;;;;6149895;23;20029;-87
2023/11/28 08:37:58;;;;;;;9.35;7.50;;;;;;;;;;6150207;23;20113;-87
2023/11/28 08:40:26;;;;;;;7.85;6.82;;;;;;;;;;6151365;23;20017;-86
2023/11/28 08:42:53;;;;;;;8.98;8.15;;;;;;;;;;6151510;23;20026;-88
2023/11/28 08:45:21;;;;;;;9.30;8.40;;;;;;;;;;6151202;23;20075;-87
2023/11/28 08:47:48;;;;;;;8.20;7.40;;;;;;;;;;6156214;23;20071;-87
2023/11/28 08:50:16;;;;;;;17.48;10.65;;;;;;;;;;6151000;23;20064;-87
2023/11/28 08:52:43;;;;;;;13.00;9.25;;;;;;;;;;6154751;23;20025;-87
2023/11/28 08:55:10;;;;;;;12.95;10.98;;;;;;;;;;6180966;23;20017;-87
2023/11/28 08:57:37;;;;;;;10.95;9.13;;;;;;;;;;6181287;23;20044;-86
2023/11/28 09:00:05;;;;;;;12.20;10.88;;;;;;;;;;6155022;23;20393;-87
2023/11/28 09:02:33;;;;;;;9.10;8.20;;;;;;;;;;6155199;23;20029;-86
2023/11/28 09:05:00;;;;;;;11.10;9.00;;;;;;;;;;6180753;23;20090;-85
2023/11/28 09:07:28;;;;;;;22.90;15.60;;;;;;;;;;6180194;23;20496;-85
2023/11/28 09:09:55;;;;;;;13.95;9.82;;;;;;;;;;6154450;23;20070;-86
2023/11/28 09:12:22;;;;;;;12.48;10.18;;;;;;;;;;6180593;23;20029;-86
2023/11/28 09:14:50;;;;;;;12.68;9.77;;;;;;;;;;6154188;23;20025;-86
2023/11/28 09:17:23;;;;;;;17.98;10.95;;;;;;;;;;6155872;23;20454;-85
2023/11/28 09:19:50;;;;;;;16.40;10.50;;;;;;;;;;6182068;23;20108;-86
2023/11/28 09:22:18;;;;;;;18.15;12.50;;;;;;;;;;6182111;23;20122;-86
2023/11/28 09:24:45;;;;;;;17.70;13.45;;;;;;;;;;6155232;23;20370;-84
2023/11/28 09:27:12;;;;;;;17.08;11.68;;;;;;;;;;6155787;23;20017;-86
2023/11/28 09:29:40;;;;;;;18.98;15.07;;;;;;;;;;6156112;23;20109;-85
2023/11/28 09:32:07;;;;;;;13.82;12.35;;;;;;;;;;6155930;23;20017;-86
2023/11/28 09:34:35;;;;;;;15.13;11.93;;;;;;;;;;6154824;23;20078;-85
2023/11/28 09:37:03;;;;;;;15.55;13.80;;;;;;;;;;6155754;23;20048;-85
2023/11/28 09:39:31;;;;;;;12.45;10.15;;;;;;;;;;6181669;23;20021;-84
2023/11/28 09:41:59;;;;;;;15.50;13.27;;;;;;;;;;6181980;23;20021;-86
2023/11/28 09:44:29;;;;;;;13.90;10.30;;;;;;;;;;6155666;23;20035;-85
2023/11/28 09:46:57;;;;;;;17.65;15.45;;;;;;;;;;6155929;23;20086;-86
2023/11/28 09:49:24;;;;;;;12.80;10.23;;;;;;;;;;6181841;23;20021;-85
2023/11/28 09:51:53;;;;;;;11.25;10.05;;;;;;;;;;6155026;23;20082;-85
2023/11/28 09:54:20;;;;;;;12.68;10.45;;;;;;;;;;6181350;23;20032;-85
2023/11/28 09:56:48;;;;;;;11.23;9.70;;;;;;;;;;6181328;23;20027;-85
2023/11/28 09:59:16;;;;;;;14.10;10.93;;;;;;;;;;6155332;23;20025;-85
2023/11/28 10:01:44;;;;;;;14.00;10.30;;;;;;;;;;6155728;23;20021;-85
2023/11/28 10:04:12;;;;;;;12.13;10.00;;;;;;;;;;6155836;23;20120;-85
2023/11/28 10:06:44;;;;;;;19.13;11.88;;;;;;;;;;6181232;23;20036;-85
2023/11/28 10:09:11;;;;;;;12.43;9.40;;;;;;;;;;6155868;23;20025;-85
2023/11/28 10:11:40;;;;;;;14.15;10.18;;;;;;;;;;6155275;23;20021;-85
2023/11/28 10:14:08;;;;;;;12.45;10.05;;;;;;;;;;6155745;23;20025;-85
2023/11/28 10:16:46;;;;;;;12.73;10.10;;;;;;;;;;6155521;23;20092;-86
2023/11/28 10:19:15;;;;;;;11.93;9.80;;;;;;;;;;6156165;23;20024;-86
2023/11/28 10:21:42;;;;;;;11.88;9.35;;;;;;;;;;6155257;23;20017;-86
2023/11/28 10:24:10;;;;;;;11.13;9.27;;;;;;;;;;6155423;23;20299;-86
2023/11/28 10:26:38;;;;;;;12.70;9.32;;;;;;;;;;6155335;23;20021;-86
2023/11/28 10:29:06;;;;;;;16.17;10.93;;;;;;;;;;6155053;23;20354;-86
2023/11/28 10:31:37;;;;;;;10.55;8.23;;;;;;;;;;6181699;23;20017;-86
2023/11/28 10:34:08;;;;;;;8.43;7.47;;;;;;;;;;6181983;23;20048;-86
2023/11/28 10:36:54;;;;;;;10.38;8.38;;;;;;;;;;6156256;23;20367;-85
2023/11/28 10:39:21;;;;;;;9.48;8.50;;;;;;;;;;6181708;23;20025;-86
2023/11/28 10:41:49;;;;;;;10.13;8.90;;;;;;;;;;6155673;23;20021;-85
2023/11/28 10:44:16;;;;;;;9.15;7.93;;;;;;;;;;6181473;23;20024;-86
2023/11/28 10:46:44;;;;;;;11.77;8.18;;;;;;;;;;6156634;23;20078;-86
2023/11/28 10:49:11;;;;;;;9.32;8.32;;;;;;;;;;6155786;23;20021;-86
2023/11/28 10:51:39;;;;;;;9.75;8.00;;;;;;;;;;6182192;23;20029;-88
2023/11/28 10:54:07;;;;;;;7.72;6.55;;;;;;;;;;6150532;23;20021;-86
2023/11/28 10:56:46;;;;;;;7.90;7.00;;;;;;;;;;6151386;23;20057;-86
2023/11/28 10:59:19;;;;;;;8.07;6.60;;;;;;;;;;6151705;23;20033;-87
2023/11/28 11:01:47;;;;;;;8.35;6.93;;;;;;;;;;6150714;23;20022;-87
2023/11/28 11:04:14;;;;;;;9.27;7.72;;;;;;;;;;6152654;23;20021;-86
2023/11/28 11:06:42;;;;;;;11.75;9.90;;;;;;;;;;6158421;23;20082;-87
2023/11/28 11:09:11;;;;;;;7.47;6.00;;;;;;;;;;6153929;23;20025;-86
2023/11/28 11:11:39;;;;;;;9.43;6.25;;;;;;;;;;6151405;23;20036;-87
2023/11/28 11:14:15;;;;;;;6.72;5.55;;;;;;;;;;6152036;23;20353;-86
2023/11/28 11:16:46;;;;;;;8.93;6.55;;;;;;;;;;6151342;23;20156;-86
2023/11/28 11:19:14;;;;;;;6.75;6.03;;;;;;;;;;6152603;23;20036;-87
2023/11/28 11:21:51;;;;;;;8.23;5.80;;;;;;;;;;6150984;23;20094;-86
2023/11/28 11:24:21;;;;;;;6.32;5.72;;;;;;;;;;6151257;23;20056;-85
2023/11/28 11:26:52;;;;;;;7.28;5.22;;;;;;;;;;6151083;23;20025;-87
2023/11/28 11:29:19;;;;;;;7.18;5.72;;;;;;;;;;6151002;23;20029;-87
2023/11/28 11:31:48;;;;;;;5.82;5.25;;;;;;;;;;6151893;23;20021;-87
2023/11/28 11:34:34;;;;;;;7.43;6.40;;;;;;;;;;6150553;23;20048;-87
2023/11/28 11:37:15;;;;;;;12.10;8.23;;;;;;;;;;6152006;23;20022;-87
2023/11/28 11:39:43;;;;;;;7.57;6.82;;;;;;;;;;6150692;23;20433;-88
2023/11/28 11:42:35;;;;;;;28.60;20.42;;;;;;;;;;6151351;23;20473;-87
2023/11/28 11:45:06;;;;;;;71.40;48.08;;;;;;;;;;6151432;23;20018;-88
2023/11/28 11:47:35;;;;;;;6.65;5.05;;;;;;;;;;6152416;23;20036;-87
2023/11/28 11:50:06;;;;;;;6.53;5.82;;;;;;;;;;6149224;23;20053;-87
2023/11/28 11:52:34;;;;;;;9.13;7.47;;;;;;;;;;6154221;23;20346;-88
2023/11/28 11:55:09;;;;;;;23.70;17.80;;;;;;;;;;6154408;23;20025;-87
2023/11/28 11:57:41;;;;;;;7.80;6.80;;;;;;;;;;6155820;23;20025;-88
2023/11/28 12:00:13;;;;;;;5.50;4.93;;;;;;;;;;6156155;23;20028;-87
2023/11/28 12:02:41;;;;;;;9.52;6.75;;;;;;;;;;6156169;23;20025;-88
2023/11/28 12:05:10;;;;;;;6.68;5.43;;;;;;;;;;6181646;23;20101;-87
2023/11/28 12:07:39;;;;;;;13.55;9.00;;;;;;;;;;6181592;23;20056;-88
2023/11/28 12:10:08;;;;;;;5.25;4.75;;;;;;;;;;6181231;23;20021;-87
2023/11/28 12:12:35;;;;;;;7.30;6.60;;;;;;;;;;6156060;23;20338;-87
2023/11/28 12:15:03;;;;;;;5.93;5.03;;;;;;;;;;6155825;23;20031;-88
2023/11/28 12:17:30;;;;;;;5.88;4.45;;;;;;;;;;6156240;23;20025;-87
2023/11/28 12:19:58;;;;;;;9.80;5.03;;;;;;;;;;6155660;23;20086;-87
2023/11/28 12:22:25;;;;;;;5.28;4.30;;;;;;;;;;6181986;23;20021;-87
2023/11/28 12:24:52;;;;;;;6.05;4.20;;;;;;;;;;6155491;23;20025;-86
2023/11/28 12:27:20;;;;;;;5.30;4.25;;;;;;;;;;6180826;23;20017;-88
2023/11/28 12:29:49;;;;;;;16.38;10.38;;;;;;;;;;6155978;23;20381;-87
2023/11/28 12:32:16;;;;;;;30.33;16.02;;;;;;;;;;6181244;23;20088;-87
2023/11/28 12:34:44;;;;;;;9.70;6.80;;;;;;;;;;6181106;23;20030;-87
2023/11/28 12:37:11;;;;;;;10.60;9.23;;;;;;;;;;6155752;23;20096;-87
2023/11/28 12:39:40;;;;;;;28.05;20.73;;;;;;;;;;6181200;23;20025;-87
2023/11/28 12:42:07;;;;;;;4.55;4.15;;;;;;;;;;6155673;23;20021;-88
2023/11/28 12:44:35;;;;;;;5.25;4.30;;;;;;;;;;6155476;23;20025;-87
2023/11/28 12:47:04;;;;;;;4.43;3.60;;;;;;;;;;6155570;23;20025;-87
2023/11/28 12:49:35;;;;;;;3.67;3.38;;;;;;;;;;6181274;23;20021;-87
2023/11/28 12:52:02;;;;;;;4.75;4.25;;;;;;;;;;6180882;23;20025;-88
2023/11/28 12:54:30;;;;;;;4.53;3.53;;;;;;;;;;6181203;23;20078;-87
2023/11/28 12:56:57;;;;;;;3.40;3.10;;;;;;;;;;6155705;23;20051;-87
2023/11/28 12:59:26;;;;;;;5.32;4.93;;;;;;;;;;6181704;23;20025;-91
2023/11/28 13:01:54;;;;;;;3.75;3.50;;;;;;;;;;6155167;22;20466;-87
2023/11/28 13:04:24;;;;;;;4.30;3.90;;;;;;;;;;6181418;23;20025;-87
2023/11/28 13:06:52;;;;;;;3.30;3.00;;;;;;;;;;6155650;23;20103;-88
2023/11/28 13:09:39;;;;;;;2.88;2.65;;;;;;;;;;6159533;23;20322;-87
2023/11/28 13:12:08;;;;;;;3.10;2.90;;;;;;;;;;6181107;23;20025;-87
2023/11/28 13:14:36;;;;;;;2.72;2.53;;;;;;;;;;6155403;23;20025;-88
2023/11/28 13:17:04;;;;;;;3.17;2.97;;;;;;;;;;6155893;23;20388;-87
2023/11/28 13:19:34;;;;;;;3.03;2.63;;;;;;;;;;6181119;23;20035;-87
2023/11/28 13:22:03;;;;;;;3.63;2.72;;;;;;;;;;6181516;23;20027;-86
2023/11/28 13:24:30;;;;;;;4.45;3.85;;;;;;;;;;6180720;23;20029;-87
2023/11/28 13:26:58;;;;;;;2.63;2.47;;;;;;;;;;6155541;23;20028;-87
2023/11/28 13:29:25;;;;;;;2.50;2.40;;;;;;;;;;6155792;23;20018;-87
2023/11/28 13:31:55;;;;;;;3.25;3.00;;;;;;;;;;6180834;23;20021;-88
2023/11/28 13:34:24;;;;;;;2.92;2.72;;;;;;;;;;6180967;23;20067;-88
2023/11/28 13:36:51;;;;;;;3.15;2.85;;;;;;;;;;6154672;23;20021;-87
2023/11/28 13:39:23;;;;;;;2.72;2.53;;;;;;;;;;6181014;23;20026;-87
2023/11/28 13:41:50;;;;;;;2.92;2.60;;;;;;;;;;6155604;23;20423;-88
2023/11/28 13:44:17;;;;;;;2.80;2.60;;;;;;;;;;6155057;23;20021;-87
2023/11/28 13:46:45;;;;;;;5.03;3.00;;;;;;;;;;6155145;23;20099;-87
2023/11/28 13:49:12;;;;;;;4.55;3.65;;;;;;;;;;6155066;23;20021;-88
2023/11/28 13:51:40;;;;;;;2.70;2.47;;;;;;;;;;6155059;23;20025;-87
2023/11/28 13:54:08;;;;;;;5.43;3.25;;;;;;;;;;6180714;23;20021;-87
2023/11/28 13:56:36;;;;;;;7.50;3.13;;;;;;;;;;6155440;23;20023;-87
2023/11/28 13:59:03;;;;;;;3.65;2.63;;;;;;;;;;6181474;23;20096;-88
2023/11/28 14:01:31;;;;;;;5.22;4.20;;;;;;;;;;6155759;23;20022;-88
2023/11/28 14:03:59;;;;;;;6.25;4.63;;;;;;;;;;6155877;23;20032;-87
2023/11/28 14:06:27;;;;;;;5.40;3.15;;;;;;;;;;6193288;23;20156;-86
2023/11/28 14:08:54;;;;;;;4.28;3.22;;;;;;;;;;6168340;23;20025;-86
2023/11/28 14:11:21;;;;;;;2.90;2.70;;;;;;;;;;6159465;23;20102;-88
2023/11/28 14:13:49;;;;;;;3.33;3.05;;;;;;;;;;6156642;23;20441;-87
2023/11/28 14:16:16;;;;;;;2.80;2.60;;;;;;;;;;6156072;23;20021;-87
2023/11/28 14:18:44;;;;;;;3.40;3.10;;;;;;;;;;6156478;23;20025;-87
2023/11/28 14:21:11;;;;;;;3.30;3.05;;;;;;;;;;6156415;23;20122;-87
2023/11/28 14:23:38;;;;;;;4.38;3.88;;;;;;;;;;6182385;23;20523;-87
2023/11/28 14:26:06;;;;;;;11.60;3.70;;;;;;;;;;6155965;23;20021;-86
2023/11/28 14:28:34;;;;;;;4.75;3.75;;;;;;;;;;6181857;23;20041;-87
2023/11/28 14:31:02;;;;;;;5.35;3.60;;;;;;;;;;6182286;23;20021;-87
2023/11/28 14:33:29;;;;;;;3.70;3.40;;;;;;;;;;6156320;23;20074;-87
2023/11/28 14:35:57;;;;;;;3.53;3.22;;;;;;;;;;6155996;23;20035;-86
2023/11/28 14:38:24;;;;;;;6.45;3.53;;;;;;;;;;6181923;23;20031;-86
2023/11/28 14:40:52;;;;;;;4.68;3.83;;;;;;;;;;6156078;22;20017;-87